Time;durP1;ratioP1;P1;durP2;ratioP2;P2;SDS_P1;SDS_P2;PMS_P1;PMS_P2;Temp;Humidity;BMP_temperature;BMP_pressure;BME280_temperature;BME280_humidity;BME280_pressure;Samples;Min_cycle;Max_cycle;Signal;HPM_P1;HPM_P2
2022/03/14 00:00:24;;;;;;;14.03;9.60;;;12.50;29.60;;;;;;4990714;28;20175;-71
2022/03/14 00:02:51;;;;;;;13.27;8.97;;;12.40;29.80;;;;;;4998000;28;20201;-71
2022/03/14 00:05:17;;;;;;;15.60;9.73;;;10.10;27.80;;;;;;5004056;28;20476;-71
2022/03/14 00:07:44;;;;;;;12.60;9.53;;;12.40;31.20;;;;;;5009318;28;20530;-71
2022/03/14 00:10:13;;;;;;;13.90;9.27;;;12.40;32.10;;;;;;4989816;28;20419;-71
2022/03/14 00:12:40;;;;;;;13.13;9.90;;;12.30;34.40;;;;;;4987389;28;20426;-71
2022/03/14 00:15:09;;;;;;;12.80;9.13;;;12.20;35.70;;;;;;4990533;28;20465;-71
2022/03/14 00:17:34;;;;;;;14.30;9.23;;;12.10;39.50;;;;;;4987669;28;20567;-71
2022/03/14 00:20:02;;;;;;;15.23;9.67;;;12.00;39.50;;;;;;4989654;28;20517;-72
2022/03/14 00:22:28;;;;;;;17.30;10.57;;;11.90;39.40;;;;;;4987402;28;20262;-71
2022/03/14 00:24:54;;;;;;;16.43;11.10;;;11.80;39.30;;;;;;4988845;28;20520;-71
2022/03/14 00:27:19;;;;;;;15.63;11.03;;;11.80;42.00;;;;;;4989053;28;20206;-71
2022/03/14 00:29:45;;;;;;;18.37;13.57;;;11.70;39.40;;;;;;4988654;28;20422;-71
2022/03/14 00:32:10;;;;;;;15.50;11.53;;;11.60;39.30;;;;;;4989668;28;20361;-71
2022/03/14 00:34:36;;;;;;;21.30;13.80;;;11.60;39.30;;;;;;4997399;28;20167;-71
2022/03/14 00:37:01;;;;;;;19.90;13.30;;;11.50;39.30;;;;;;4988654;28;20302;-71
2022/03/14 00:39:27;;;;;;;22.20;14.70;;;11.50;39.20;;;;;;4988462;28;20261;-71
2022/03/14 00:41:52;;;;;;;21.03;13.90;;;11.50;39.30;;;;;;4988232;28;20529;-71
2022/03/14 00:44:18;;;;;;;24.07;14.57;;;11.40;39.20;;;;;;4988137;28;20539;-71
2022/03/14 00:46:44;;;;;;;23.60;15.67;;;11.40;39.20;;;;;;4984764;28;20206;-71
2022/03/14 00:49:11;;;;;;;26.80;15.20;;;11.40;39.20;;;;;;4989750;28;20237;-71
2022/03/14 00:51:37;;;;;;;22.67;15.50;;;11.30;39.10;;;;;;4997040;28;20251;-71
2022/03/14 00:54:03;;;;;;;23.23;16.27;;;11.30;39.10;;;;;;4989475;28;20901;-71
2022/03/14 00:56:29;;;;;;;27.00;15.70;;;11.20;39.00;;;;;;4988248;28;20885;-71
2022/03/14 00:58:55;;;;;;;25.43;15.53;;;11.30;39.20;;;;;;4989422;28;20530;-71
2022/03/14 01:01:22;;;;;;;26.20;14.93;;;11.20;39.10;;;;;;4988310;28;20186;-71
2022/03/14 01:03:47;;;;;;;25.73;16.03;;;11.10;40.30;;;;;;4998974;28;20433;-71
2022/03/14 01:06:13;;;;;;;26.17;16.50;;;11.10;42.60;;;;;;4990573;28;20414;-71
2022/03/14 01:08:40;;;;;;;25.93;16.90;;;11.10;44.60;;;;;;4987482;28;20190;-71
2022/03/14 01:11:05;;;;;;;25.20;16.60;;;11.10;46.60;;;;;;4986453;28;20179;-71
2022/03/14 01:13:31;;;;;;;33.93;16.73;;;11.10;46.60;;;;;;4989085;28;20429;-71
2022/03/14 01:15:59;;;;;;;25.93;16.57;;;11.10;48.00;;;;;;4988373;28;20171;-71
2022/03/14 01:18:25;;;;;;;24.10;16.10;;;11.00;48.40;;;;;;4987389;28;20195;-71
2022/03/14 01:20:51;;;;;;;31.57;16.27;;;11.00;48.10;;;;;;4987866;28;20414;-71
2022/03/14 01:23:17;;;;;;;27.63;15.80;;;11.00;49.20;;;;;;4988686;28;20432;-71
2022/03/14 01:25:43;;;;;;;28.23;15.77;;;11.00;50.10;;;;;;4988637;28;20224;-71
2022/03/14 01:28:08;;;;;;;23.43;14.60;;;11.00;48.50;;;;;;4986265;28;20821;-71
2022/03/14 01:30:35;;;;;;;24.00;15.40;;;11.00;48.60;;;;;;4987141;28;20176;-71
2022/03/14 01:33:01;;;;;;;24.80;15.00;;;10.90;49.50;;;;;;4988196;28;20564;-70
2022/03/14 01:35:27;;;;;;;23.13;15.87;;;10.90;50.40;;;;;;4990716;28;20420;-70
2022/03/14 01:37:54;;;;;;;26.30;15.43;;;11.00;50.40;;;;;;4985558;28;20891;-71
2022/03/14 01:40:20;;;;;;;20.40;14.17;;;10.90;50.70;;;;;;4988393;28;20545;-71
2022/03/14 01:42:46;;;;;;;27.00;14.67;;;10.80;50.30;;;;;;4985868;28;20428;-71
2022/03/14 01:45:14;;;;;;;20.87;13.83;;;10.80;51.00;;;;;;4987333;28;20642;-71
2022/03/14 01:47:41;;;;;;;20.87;13.20;;;10.80;55.10;;;;;;4985655;28;20457;-70
2022/03/14 01:50:07;;;;;;;17.93;11.87;;;10.80;62.20;;;;;;4985486;28;20562;-71
2022/03/14 01:52:34;;;;;;;17.13;11.10;;;10.80;72.00;;;;;;4985794;28;20444;-71
2022/03/14 01:55:00;;;;;;;12.57;8.87;;;10.90;86.60;;;;;;4988290;28;20513;-71
2022/03/14 01:57:26;;;;;;;10.53;7.10;;;11.00;99.50;;;;;;4993919;28;20987;-71
2022/03/14 01:59:51;;;;;;;7.43;5.60;;;11.00;99.90;;;;;;5005521;28;20417;-71
2022/03/14 02:02:17;;;;;;;4.97;3.83;;;11.10;99.90;;;;;;4998124;28;20186;-70
2022/03/14 02:04:42;;;;;;;5.40;4.20;;;11.10;99.90;;;;;;4996244;28;20205;-71
2022/03/14 02:07:08;;;;;;;5.00;3.47;;;11.20;99.90;;;;;;4986713;28;20314;-71
2022/03/14 02:09:34;;;;;;;3.23;2.93;;;11.30;99.90;;;;;;4988693;28;20257;-71
2022/03/14 02:12:00;;;;;;;3.40;2.90;;;11.20;99.90;;;;;;4987054;28;20893;-71
2022/03/14 02:14:25;;;;;;;2.53;2.10;;;10.90;99.90;;;;;;4988152;28;20179;-71
2022/03/14 02:16:52;;;;;;;2.40;2.20;;;10.50;99.90;;;;;;4987002;28;20421;-72
2022/03/14 02:19:18;;;;;;;2.10;1.90;;;10.30;99.90;;;;;;4986483;28;20206;-71
2022/03/14 02:21:44;;;;;;;2.53;2.03;;;10.20;99.90;;;;;;4985346;28;20551;-71
2022/03/14 02:24:09;;;;;;;2.73;2.30;;;10.10;99.90;;;;;;4987882;28;20629;-71
2022/03/14 02:26:39;;;;;;;3.00;1.93;;;10.10;99.90;;;;;;4994844;28;20264;-71
2022/03/14 02:29:06;;;;;;;2.30;2.10;;;10.10;99.90;;;;;;5000462;28;20174;-70
2022/03/14 02:31:32;;;;;;;2.37;2.17;;;10.10;99.90;;;;;;4991822;28;20510;-70
2022/03/14 02:33:57;;;;;;;2.30;1.97;;;10.10;99.90;;;;;;4999763;28;20600;-71
2022/03/14 02:36:23;;;;;;;2.97;2.40;;;10.00;99.90;;;;;;4986749;28;20183;-71
2022/03/14 02:38:48;;;;;;;2.53;2.30;;;10.00;99.90;;;;;;4986566;28;20312;-70
2022/03/14 02:41:14;;;;;;;3.40;2.30;;;10.00;99.90;;;;;;4986573;28;20259;-70
2022/03/14 02:43:39;;;;;;;2.50;2.07;;;10.00;99.90;;;;;;4988460;28;20658;-71
2022/03/14 02:46:05;;;;;;;2.23;2.00;;;10.00;99.90;;;;;;4991055;28;20266;-71
2022/03/14 02:48:30;;;;;;;3.30;2.10;;;9.90;99.90;;;;;;4987494;28;20203;-70
2022/03/14 02:50:56;;;;;;;2.63;2.43;;;9.80;99.90;;;;;;4990293;28;20183;-71
2022/03/14 02:53:22;;;;;;;3.70;1.80;;;9.70;99.90;;;;;;4990088;28;20186;-71
2022/03/14 02:55:48;;;;;;;2.73;2.20;;;9.70;99.90;;;;;;4990908;28;20179;-72
2022/03/14 02:58:14;;;;;;;2.40;2.20;;;9.60;99.90;;;;;;4989844;28;20203;-70
2022/03/14 03:00:39;;;;;;;2.90;2.03;;;9.60;99.90;;;;;;4989704;28;20908;-71
2022/03/14 03:03:09;;;;;;;3.93;2.20;;;9.60;99.90;;;;;;5002248;28;20216;-70
2022/03/14 03:05:37;;;;;;;3.83;2.30;;;9.50;99.90;;;;;;5007540;28;20213;-71
2022/03/14 03:08:04;;;;;;;3.17;2.40;;;9.40;99.90;;;;;;5009560;28;20528;-71
2022/03/14 03:10:31;;;;;;;2.40;2.13;;;9.50;99.90;;;;;;4993223;28;20429;-71
2022/03/14 03:12:56;;;;;;;3.33;2.20;;;9.40;99.90;;;;;;4990193;28;20422;-70
2022/03/14 03:15:24;;;;;;;4.97;2.30;;;9.40;99.90;;;;;;4989732;28;20809;-70
2022/03/14 03:17:50;;;;;;;2.50;2.17;;;9.40;99.90;;;;;;4990563;28;20199;-70
2022/03/14 03:20:15;;;;;;;3.60;2.30;;;9.30;99.90;;;;;;4991319;28;20479;-70
2022/03/14 03:22:41;;;;;;;2.50;2.30;;;9.40;99.90;;;;;;4989509;28;20186;-71
2022/03/14 03:25:07;;;;;;;3.07;2.40;;;9.40;99.90;;;;;;4991103;28;20200;-71
2022/03/14 03:27:33;;;;;;;2.73;2.23;;;9.30;99.90;;;;;;4990092;28;20198;-71
2022/03/14 03:29:59;;;;;;;2.60;2.40;;;9.30;99.90;;;;;;4991394;28;20417;-71
2022/03/14 03:32:25;;;;;;;2.70;2.10;;;9.30;99.90;;;;;;4991582;28;20316;-70
2022/03/14 03:34:51;;;;;;;3.13;2.00;;;9.30;99.90;;;;;;4997714;28;20707;-70
2022/03/14 03:37:17;;;;;;;2.40;2.20;;;9.30;99.90;;;;;;4985592;28;20263;-70
2022/03/14 03:39:43;;;;;;;3.17;2.07;;;9.30;99.90;;;;;;4989845;28;20427;-71
2022/03/14 03:42:08;;;;;;;2.70;2.33;;;9.30;99.90;;;;;;4987526;28;20175;-71
2022/03/14 03:44:34;;;;;;;2.13;1.93;;;9.20;99.90;;;;;;4990740;28;20621;-71
2022/03/14 03:47:01;;;;;;;5.70;2.50;;;9.20;99.90;;;;;;4989293;28;20569;-71
2022/03/14 03:49:27;;;;;;;3.20;2.20;;;9.20;99.90;;;;;;4989034;28;20426;-71
2022/03/14 03:51:52;;;;;;;3.27;2.60;;;9.20;99.90;;;;;;4989202;28;20548;-70
2022/03/14 03:54:18;;;;;;;3.00;2.60;;;9.10;99.90;;;;;;4990306;28;20587;-71
2022/03/14 03:56:43;;;;;;;2.40;2.20;;;9.10;99.90;;;;;;4989846;28;20202;-71
2022/03/14 03:59:09;;;;;;;2.90;2.53;;;9.10;99.90;;;;;;4990507;28;20202;-71
2022/03/14 04:01:35;;;;;;;2.80;2.57;;;9.00;99.90;;;;;;4990007;28;20183;-71
2022/03/14 04:04:01;;;;;;;3.33;2.40;;;9.00;99.90;;;;;;4996511;28;20258;-71
2022/03/14 04:06:29;;;;;;;3.27;2.30;;;9.00;99.90;;;;;;4989775;28;20418;-71
2022/03/14 04:08:55;;;;;;;2.50;2.07;;;9.10;99.90;;;;;;4990528;28;20912;-71
2022/03/14 04:11:21;;;;;;;2.57;2.10;;;9.00;99.90;;;;;;4989071;28;20501;-71
2022/03/14 04:13:48;;;;;;;3.60;2.00;;;9.00;99.90;;;;;;4986748;28;20186;-70
2022/03/14 04:16:18;;;;;;;2.63;2.13;;;9.00;99.90;;;;;;4989702;28;20800;-71
2022/03/14 04:18:44;;;;;;;3.00;2.17;;;9.00;99.90;;;;;;4990035;28;20557;-71
2022/03/14 04:21:12;;;;;;;2.10;1.90;;;9.00;99.90;;;;;;4988959;28;20758;-71
2022/03/14 04:23:38;;;;;;;2.20;1.77;;;9.00;99.90;;;;;;4988668;28;20909;-71
2022/03/14 04:26:04;;;;;;;2.20;1.97;;;9.00;99.90;;;;;;4987763;28;20628;-71
2022/03/14 04:28:30;;;;;;;1.67;1.57;;;9.00;99.90;;;;;;4990095;28;20207;-71
2022/03/14 04:30:55;;;;;;;1.83;1.73;;;9.00;99.90;;;;;;4989263;28;20187;-71
2022/03/14 04:33:21;;;;;;;1.60;1.50;;;9.00;99.90;;;;;;4998499;28;20202;-71
2022/03/14 04:35:47;;;;;;;1.50;1.40;;;9.00;99.90;;;;;;4989141;28;20181;-70
2022/03/14 04:38:13;;;;;;;1.97;1.50;;;9.00;99.90;;;;;;4988478;28;20213;-71
2022/03/14 04:40:38;;;;;;;1.70;1.60;;;8.90;99.90;;;;;;4989337;28;20684;-71
2022/03/14 04:43:08;;;;;;;1.60;1.10;;;8.90;99.90;;;;;;4989079;28;20498;-71
2022/03/14 04:45:35;;;;;;;1.37;1.10;;;8.90;99.90;;;;;;4989569;28;20174;-71
2022/03/14 04:48:01;;;;;;;1.50;1.40;;;8.90;99.90;;;;;;4985298;28;20430;-70
2022/03/14 04:50:27;;;;;;;1.60;1.47;;;8.80;99.90;;;;;;4989419;28;20410;-71
2022/03/14 04:52:53;;;;;;;1.50;1.40;;;8.80;99.90;;;;;;4988604;28;20430;-70
2022/03/14 04:55:18;;;;;;;1.30;1.20;;;8.70;99.90;;;;;;4989620;28;20511;-71
2022/03/14 04:57:44;;;;;;;1.87;1.40;;;8.80;99.90;;;;;;4988426;28;20469;-70
2022/03/14 05:00:10;;;;;;;1.50;1.40;;;8.80;99.90;;;;;;4989532;28;20179;-70
2022/03/14 05:02:35;;;;;;;1.27;1.17;;;8.80;99.90;;;;;;4996503;28;20257;-71
2022/03/14 05:05:01;;;;;;;1.93;1.40;;;8.80;99.90;;;;;;4990044;28;20292;-71
2022/03/14 05:07:27;;;;;;;1.57;1.47;;;8.80;99.90;;;;;;4987396;28;20223;-71
2022/03/14 05:09:53;;;;;;;3.70;1.43;;;8.80;99.90;;;;;;4987313;28;20509;-71
2022/03/14 05:12:19;;;;;;;1.43;1.30;;;8.80;99.90;;;;;;4986948;28;20630;-71
2022/03/14 05:14:45;;;;;;;1.50;1.40;;;8.80;99.90;;;;;;4987940;28;20430;-71
2022/03/14 05:17:10;;;;;;;1.40;1.30;;;8.80;99.90;;;;;;4988313;28;20225;-71
2022/03/14 05:19:36;;;;;;;1.70;1.60;;;8.80;99.90;;;;;;4986211;28;20187;-71
2022/03/14 05:22:03;;;;;;;2.17;1.60;;;8.90;99.90;;;;;;4985803;28;20248;-70
2022/03/14 05:24:28;;;;;;;2.17;1.50;;;8.90;99.90;;;;;;4986327;28;20208;-71
2022/03/14 05:26:55;;;;;;;1.57;1.47;;;8.80;99.90;;;;;;4988075;28;20839;-71
2022/03/14 05:29:21;;;;;;;2.17;1.80;;;8.80;99.90;;;;;;4988791;28;20182;-71
2022/03/14 05:31:47;;;;;;;1.93;1.40;;;8.80;99.90;;;;;;4987470;28;20452;-71
2022/03/14 05:34:13;;;;;;;4.80;1.80;;;8.80;99.90;;;;;;4995913;28;20429;-71
2022/03/14 05:36:40;;;;;;;2.73;1.80;;;8.70;99.90;;;;;;4985008;28;20195;-71
2022/03/14 05:39:06;;;;;;;2.87;1.50;;;8.80;99.90;;;;;;4987644;28;20199;-70
2022/03/14 05:41:32;;;;;;;2.07;1.67;;;8.80;99.90;;;;;;4987341;28;20819;-71
2022/03/14 05:43:57;;;;;;;9.43;2.07;;;8.70;99.90;;;;;;4986022;28;20538;-70
2022/03/14 05:46:23;;;;;;;2.83;1.90;;;8.60;99.90;;;;;;4985373;28;20170;-70
2022/03/14 05:48:49;;;;;;;3.37;2.13;;;8.70;99.90;;;;;;4988380;28;20190;-70
2022/03/14 05:51:14;;;;;;;4.70;1.97;;;8.60;99.90;;;;;;4986427;28;20633;-70
2022/03/14 05:53:40;;;;;;;3.03;1.73;;;8.60;99.90;;;;;;4987880;28;20178;-70
2022/03/14 05:56:06;;;;;;;4.60;1.77;;;8.60;99.90;;;;;;4985437;28;20703;-71
2022/03/14 05:58:32;;;;;;;4.57;2.10;;;8.60;99.90;;;;;;4984630;28;20224;-70
2022/03/14 06:00:57;;;;;;;3.70;2.20;;;8.60;99.90;;;;;;4987679;28;20284;-71
2022/03/14 06:03:23;;;;;;;3.10;1.90;;;8.60;99.90;;;;;;4997618;28;20899;-71
2022/03/14 06:05:49;;;;;;;10.03;2.13;;;8.60;99.90;;;;;;4980661;28;20297;-71
2022/03/14 06:08:16;;;;;;;3.90;2.30;;;8.60;99.90;;;;;;4966882;28;20294;-71
2022/03/14 06:10:42;;;;;;;3.67;1.70;;;8.60;99.90;;;;;;4984183;28;20523;-70
2022/03/14 06:13:08;;;;;;;5.60;2.20;;;8.60;99.90;;;;;;4987661;28;20865;-71
2022/03/14 06:15:34;;;;;;;3.60;2.10;;;8.70;99.90;;;;;;4987724;28;20425;-71
2022/03/14 06:17:59;;;;;;;4.63;2.27;;;6.70;99.90;;;;;;4985997;28;20269;-70
2022/03/14 06:20:25;;;;;;;4.80;2.10;;;8.60;99.90;;;;;;4986348;28;20269;-71
2022/03/14 06:22:50;;;;;;;6.70;2.17;;;8.60;99.90;;;;;;4986520;28;20193;-71
2022/03/14 06:25:19;;;;;;;8.57;1.90;;;8.60;99.90;;;;;;4987458;28;20214;-70
2022/03/14 06:27:46;;;;;;;5.40;2.03;;;8.70;99.90;;;;;;4985591;28;20309;-71
2022/03/14 06:30:12;;;;;;;3.10;1.90;;;8.60;99.90;;;;;;4987631;28;20529;-71
2022/03/14 06:32:40;;;;;;;6.23;2.20;;;8.60;99.90;;;;;;4995114;28;20417;-71
2022/03/14 06:35:12;;;;;;;4.60;2.37;;;8.60;99.90;;;;;;4989328;28;20515;-71
2022/03/14 06:37:38;;;;;;;3.70;1.90;;;8.60;99.90;;;;;;4985125;28;20996;-71
2022/03/14 06:40:04;;;;;;;3.47;2.03;;;8.60;99.90;;;;;;4987504;28;20429;-71
2022/03/14 06:42:30;;;;;;;5.87;2.27;;;8.60;99.90;;;;;;4985924;28;20885;-71
2022/03/14 06:45:02;;;;;;;3.63;2.23;;;8.70;99.90;;;;;;4985749;28;20533;-70
2022/03/14 06:47:28;;;;;;;3.63;2.07;;;8.70;99.90;;;;;;4984888;28;20253;-71
2022/03/14 06:49:53;;;;;;;5.07;2.40;;;8.80;99.90;;;;;;4985966;28;20873;-71
2022/03/14 06:52:19;;;;;;;6.30;2.37;;;8.90;99.90;;;;;;4986865;28;20194;-71
2022/03/14 06:54:45;;;;;;;6.30;2.00;;;9.00;99.90;;;;;;4985285;28;20250;-71
2022/03/14 06:57:11;;;;;;;3.60;2.13;;;9.20;99.90;;;;;;4985719;28;20199;-71
2022/03/14 06:59:37;;;;;;;3.60;1.97;;;9.30;99.90;;;;;;4983719;28;20248;-70
2022/03/14 07:02:04;;;;;;;6.10;2.20;;;9.30;99.90;;;;;;4986944;28;20190;-74
2022/03/14 07:04:30;;;;;;;9.65;2.20;;;9.20;99.90;;;;;;4985345;28;20458;-72
2022/03/14 07:06:56;;;;;;;4.80;2.00;;;9.20;99.90;;;;;;4984418;28;20302;-70
2022/03/14 07:09:22;;;;;;;5.60;2.50;;;9.20;99.90;;;;;;4982074;28;21135;-71
2022/03/14 07:11:51;;;;;;;5.47;2.30;;;9.20;99.90;;;;;;4982773;28;20445;-71
2022/03/14 07:14:21;;;;;;;5.53;2.43;;;9.30;99.90;;;;;;4985567;28;20433;-71
2022/03/14 07:16:48;;;;;;;5.60;2.27;;;9.40;99.90;;;;;;4985179;28;20457;-71
2022/03/14 07:19:14;;;;;;;7.00;2.93;;;9.60;99.90;;;;;;4985145;28;20604;-71
2022/03/14 07:21:40;;;;;;;5.10;2.23;;;9.50;99.90;;;;;;4986966;28;20955;-71
2022/03/14 07:24:06;;;;;;;5.73;2.40;;;9.60;99.90;;;;;;4987821;28;20366;-71
2022/03/14 07:26:31;;;;;;;13.33;2.87;;;9.60;99.90;;;;;;4984981;28;20273;-71
2022/03/14 07:28:57;;;;;;;7.50;2.33;;;9.80;99.90;;;;;;4986849;28;20418;-71
2022/03/14 07:31:23;;;;;;;7.20;2.20;;;9.90;99.90;;;;;;4989274;28;20482;-70
2022/03/14 07:33:48;;;;;;;7.00;2.13;;;10.10;99.90;;;;;;4986613;28;20718;-70
2022/03/14 07:36:15;;;;;;;10.63;3.10;;;10.70;99.90;;;;;;4983876;28;20260;-71
2022/03/14 07:38:40;;;;;;;5.97;1.97;;;10.70;99.90;;;;;;4998025;28;20265;-71
2022/03/14 07:41:08;;;;;;;6.33;2.37;;;10.80;99.90;;;;;;4984850;28;20449;-70
2022/03/14 07:43:34;;;;;;;4.77;2.23;;;10.70;99.90;;;;;;4989849;28;20310;-70
2022/03/14 07:46:01;;;;;;;5.27;2.70;;;10.70;99.90;;;;;;5000865;28;20529;-70
2022/03/14 07:48:27;;;;;;;5.43;2.10;;;10.90;99.90;;;;;;4997790;28;20210;-70
2022/03/14 07:50:52;;;;;;;7.47;2.60;;;10.90;99.90;;;;;;4995734;28;20441;-72
2022/03/14 07:53:18;;;;;;;7.27;2.77;;;10.90;99.90;;;;;;4987124;28;20183;-71
2022/03/14 07:55:44;;;;;;;7.77;2.53;;;11.40;99.90;;;;;;4988123;28;20661;-71
2022/03/14 07:58:09;;;;;;;5.07;2.20;;;10.90;99.90;;;;;;5000185;28;20583;-70
2022/03/14 08:00:35;;;;;;;4.20;2.00;;;10.90;99.90;;;;;;4981424;28;20183;-71
2022/03/14 08:03:00;;;;;;;6.77;2.27;;;11.00;99.90;;;;;;4994835;28;20182;-71
2022/03/14 08:05:26;;;;;;;6.10;2.07;;;11.10;99.90;;;;;;4991314;28;20191;-71
2022/03/14 08:07:53;;;;;;;6.90;2.10;;;11.00;99.90;;;;;;4987407;28;20294;-71
2022/03/14 08:10:19;;;;;;;7.80;2.17;;;11.10;99.90;;;;;;4985097;28;20207;-71
2022/03/14 08:12:49;;;;;;;5.87;2.20;;;11.20;99.90;;;;;;4987738;28;20454;-70
2022/03/14 08:15:34;;;;;;;4.40;2.50;;;11.30;99.90;;;;;;4987386;28;20179;-70
2022/03/14 08:18:01;;;;;;;6.50;2.20;;;11.20;99.90;;;;;;4990093;28;20472;-71
2022/03/14 08:20:28;;;;;;;6.10;1.90;;;11.10;99.90;;;;;;4983974;28;20481;-71
2022/03/14 08:22:55;;;;;;;6.90;2.53;;;11.10;99.90;;;;;;4995270;28;20422;-70
2022/03/14 08:25:21;;;;;;;4.17;2.00;;;11.30;99.90;;;;;;4989713;28;20473;-70
2022/03/14 08:27:47;;;;;;;5.10;2.03;;;11.20;99.90;;;;;;4987036;28;20825;-70
2022/03/14 08:30:13;;;;;;;7.00;2.23;;;11.40;99.90;;;;;;4989990;28;20433;-70
2022/03/14 08:32:39;;;;;;;4.50;2.03;;;11.60;99.90;;;;;;4987987;28;20179;-70
2022/03/14 08:35:07;;;;;;;7.67;2.17;;;11.70;99.90;;;;;;5002290;28;20421;-71
2022/03/14 08:37:42;;;;;;;9.30;2.03;;;12.00;99.90;;;;;;4988161;28;20199;-70
2022/03/14 08:40:10;;;;;;;5.13;2.13;;;12.20;99.90;;;;;;4984433;28;20410;-71
2022/03/14 08:42:37;;;;;;;10.37;2.13;;;12.70;99.90;;;;;;4986887;28;20415;-71
2022/03/14 08:45:04;;;;;;;5.07;2.10;;;13.10;99.90;;;;;;4989452;28;20794;-71
2022/03/14 08:47:29;;;;;;;6.17;1.97;;;13.50;99.90;;;;;;4989425;28;20442;-70
2022/03/14 08:49:55;;;;;;;6.27;2.23;;;13.60;99.90;;;;;;4987729;28;20429;-70
2022/03/14 08:52:20;;;;;;;4.97;2.20;;;13.10;99.90;;;;;;4987504;28;20175;-71
2022/03/14 08:54:46;;;;;;;6.57;2.50;;;12.60;99.90;;;;;;4985874;28;20558;-70
2022/03/14 08:57:12;;;;;;;6.27;2.23;;;12.60;99.90;;;;;;4987509;28;20206;-71
2022/03/14 08:59:38;;;;;;;4.47;1.90;;;12.70;99.90;;;;;;4989333;28;20202;-71
2022/03/14 09:02:03;;;;;;;4.70;2.20;;;12.80;99.90;;;;;;4988171;28;20179;-70
2022/03/14 09:04:29;;;;;;;4.57;2.10;;;12.90;99.90;;;;;;4999622;28;20186;-71
2022/03/14 09:06:55;;;;;;;3.83;2.30;;;13.80;99.90;;;;;;4986198;28;20191;-70
2022/03/14 09:09:20;;;;;;;5.10;1.67;;;14.80;99.90;;;;;;4987940;28;20175;-71
2022/03/14 09:11:46;;;;;;;7.87;2.43;;;16.00;99.90;;;;;;4988325;28;20318;-71
2022/03/14 09:14:12;;;;;;;8.93;2.50;;;17.40;99.90;;;;;;4988885;28;20183;-71
2022/03/14 09:16:37;;;;;;;5.73;2.30;;;18.70;99.90;;;;;;4987371;28;20202;-71
2022/03/14 09:19:03;;;;;;;9.47;2.50;;;19.80;97.90;;;;;;4988613;28;20206;-71
2022/03/14 09:21:30;;;;;;;6.03;2.60;;;20.00;93.30;;;;;;4993994;28;20175;-71
2022/03/14 09:23:56;;;;;;;5.90;2.50;;;21.10;93.60;;;;;;4989260;28;20224;-71
2022/03/14 09:26:21;;;;;;;7.60;2.50;;;22.10;72.00;;;;;;4986778;28;20473;-71
2022/03/14 09:28:48;;;;;;;7.33;2.33;;;22.00;76.00;;;;;;4988945;28;20435;-71
2022/03/14 09:31:16;;;;;;;6.07;2.73;;;21.30;75.40;;;;;;4988592;28;20178;-72
2022/03/14 09:33:42;;;;;;;8.07;2.40;;;20.50;82.50;;;;;;4996780;28;20422;-71
2022/03/14 09:36:08;;;;;;;6.30;2.77;;;19.50;82.10;;;;;;4992375;28;20807;-71
2022/03/14 09:38:33;;;;;;;6.37;2.30;;;18.80;86.80;;;;;;4988229;28;20194;-71
2022/03/14 09:41:02;;;;;;;5.00;2.10;;;19.00;86.90;;;;;;4989362;28;20264;-71
2022/03/14 09:43:30;;;;;;;5.10;2.80;;;18.90;87.30;;;;;;4998274;28;20170;-71
2022/03/14 09:45:56;;;;;;;7.07;2.40;;;19.50;89.40;;;;;;4999041;28;20961;-71
2022/03/14 09:48:23;;;;;;;6.40;2.40;;;20.90;77.60;;;;;;4999996;28;20550;-71
2022/03/14 09:50:49;;;;;;;5.67;2.37;;;21.50;72.60;;;;;;4987692;28;20206;-72
2022/03/14 09:53:17;;;;;;;6.53;2.40;;;20.70;73.90;;;;;;4984236;28;20503;-71
2022/03/14 09:55:45;;;;;;;7.57;2.40;;;19.90;76.40;;;;;;4987673;28;20955;-71
2022/03/14 09:58:11;;;;;;;5.00;2.60;;;19.90;74.40;;;;;;4987977;28;20572;-71
2022/03/14 10:00:38;;;;;;;4.23;2.20;;;19.40;75.80;;;;;;4996275;28;20786;-72
2022/03/14 10:03:04;;;;;;;4.27;2.10;;;20.10;75.00;;;;;;4996197;28;21055;-71
2022/03/14 10:05:30;;;;;;;8.23;2.30;;;21.10;69.60;;;;;;4986229;28;20434;-71
2022/03/14 10:07:56;;;;;;;6.67;2.40;;;19.90;73.30;;;;;;4977516;28;20499;-71
2022/03/14 10:10:21;;;;;;;5.17;2.20;;;18.40;81.40;;;;;;4986056;28;20746;-71
2022/03/14 10:12:52;;;;;;;7.27;2.40;;;17.80;90.00;;;;;;4980645;28;20273;-71
2022/03/14 10:15:19;;;;;;;7.27;2.60;;;17.60;88.40;;;;;;4985185;28;20241;-71
2022/03/14 10:17:45;;;;;;;4.30;2.10;;;17.90;86.70;;;;;;4991321;28;20918;-71
2022/03/14 10:20:11;;;;;;;5.97;2.80;;;18.20;86.20;;;;;;4988976;28;20456;-70
2022/03/14 10:22:39;;;;;;;7.40;2.10;;;18.50;80.70;;;;;;4988739;28;20182;-71
2022/03/14 10:25:10;;;;;;;5.67;1.93;;;18.90;81.90;;;;;;4994102;28;20320;-71
2022/03/14 10:27:40;;;;;;;4.57;2.23;;;18.00;82.50;;;;;;4989309;28;20449;-71
2022/03/14 10:30:20;;;;;;;4.47;2.20;;;17.70;88.40;;;;;;4987998;28;20426;-71
2022/03/14 10:32:47;;;;;;;4.77;2.30;;;18.90;80.50;;;;;;4985617;28;20924;-71
2022/03/14 10:35:16;;;;;;;6.67;2.00;;;19.50;78.00;;;;;;4991334;28;20512;-71
2022/03/14 10:37:59;;;;;;;9.10;2.30;;;19.80;76.80;;;;;;4992956;28;20884;-71
2022/03/14 10:40:32;;;;;;;4.63;2.43;;;21.40;67.50;;;;;;4992140;28;20480;-72
2022/03/14 10:42:58;;;;;;;6.40;2.23;;;21.80;59.20;;;;;;4990640;28;20683;-72
2022/03/14 10:45:24;;;;;;;6.47;2.60;;;20.20;71.90;;;;;;4986623;28;20480;-72
2022/03/14 10:47:54;;;;;;;4.10;2.40;;;18.90;72.90;;;;;;4988210;28;20207;-72
2022/03/14 10:50:32;;;;;;;4.97;2.03;;;17.80;81.20;;;;;;4985670;28;20183;-71
2022/03/14 10:53:34;;;;;;;6.37;2.40;;;16.50;89.30;;;;;;4981163;28;20419;-71
2022/03/14 10:56:00;;;;;;;5.50;2.40;;;15.50;93.30;;;;;;4946016;29;20423;-71
2022/03/14 10:58:34;;;;;;;3.83;1.87;;;15.00;97.40;;;;;;4980129;28;20491;-72
2022/03/14 11:01:10;;;;;;;3.87;1.80;;;14.70;97.40;;;;;;5002545;28;20936;-72
2022/03/14 11:03:39;;;;;;;3.40;1.63;;;14.60;98.90;;;;;;4995667;28;20480;-72
2022/03/14 11:06:10;;;;;;;10.03;1.77;;;14.70;99.90;;;;;;4990637;28;20397;-71
2022/03/14 11:08:42;;;;;;;7.00;1.60;;;14.50;99.90;;;;;;4992023;28;20705;-71
2022/03/14 11:11:21;;;;;;;3.70;1.80;;;14.40;99.90;;;;;;4990485;28;20464;-71
2022/03/14 11:13:49;;;;;;;5.80;2.10;;;14.40;99.90;;;;;;4992133;28;20484;-71
2022/03/14 11:16:27;;;;;;;8.53;1.70;;;14.80;99.90;;;;;;4991829;28;20457;-72
2022/03/14 11:18:53;;;;;;;1.90;1.60;;;14.80;99.90;;;;;;4989467;28;20458;-71
2022/03/14 11:21:24;;;;;;;5.27;1.63;;;15.10;99.90;;;;;;4989362;28;20604;-72
2022/03/14 11:23:51;;;;;;;4.03;1.60;;;15.30;99.10;;;;;;4990610;28;20421;-71
2022/03/14 11:26:25;;;;;;;6.77;2.10;;;15.20;99.50;;;;;;4990251;28;20426;-71
2022/03/14 11:28:52;;;;;;;4.87;1.93;;;15.10;99.90;;;;;;4992108;28;20612;-72
2022/03/14 11:31:19;;;;;;;5.80;1.80;;;15.10;99.30;;;;;;4990980;28;20410;-71
2022/03/14 11:33:46;;;;;;;3.53;1.80;;;15.10;98.70;;;;;;4993613;28;20500;-70
2022/03/14 11:36:12;;;;;;;9.83;2.00;;;15.40;98.00;;;;;;4993147;28;20410;-71
2022/03/14 11:38:37;;;;;;;4.00;1.97;;;16.30;95.30;;;;;;4989876;28;20461;-71
2022/03/14 11:41:03;;;;;;;7.53;1.80;;;16.80;95.00;;;;;;4989611;28;20175;-71
2022/03/14 11:43:30;;;;;;;3.33;1.73;;;17.10;92.20;;;;;;4991349;28;20229;-71
2022/03/14 11:45:59;;;;;;;3.90;1.90;;;16.40;93.10;;;;;;4988443;28;20520;-70
2022/03/14 11:48:30;;;;;;;4.80;2.00;;;16.20;96.00;;;;;;4989291;28;20464;-72
2022/03/14 11:50:57;;;;;;;3.27;2.40;;;16.60;95.10;;;;;;4990027;28;20426;-71
2022/03/14 11:53:26;;;;;;;6.77;2.00;;;16.90;91.50;;;;;;4990041;28;20549;-71
2022/03/14 11:55:51;;;;;;;7.40;2.00;;;16.60;92.50;;;;;;4983899;28;20517;-72
2022/03/14 11:58:34;;;;;;;5.43;1.93;;;16.80;92.70;;;;;;4983716;28;20899;-72
2022/03/14 12:01:15;;;;;;;3.65;1.55;;;17.50;88.50;;;;;;4983100;28;20425;-69
2022/03/14 12:03:58;;;;;;;4.17;1.90;;;18.80;79.90;;;;;;4988976;28;20206;-70
2022/03/14 12:06:46;;;;;;;3.60;1.63;;;19.90;72.90;;;;;;4998170;28;20756;-70
2022/03/14 12:09:35;;;;;;;4.93;1.80;;;19.90;75.40;;;;;;4972587;28;20558;-70
2022/03/14 12:12:21;;;;;;;6.10;1.93;;;20.00;70.70;;;;;;4980239;28;21021;-70
2022/03/14 12:14:47;;;;;;;3.97;1.87;;;19.30;72.00;;;;;;4998674;28;20414;-70
2022/03/14 12:17:13;;;;;;;5.90;2.03;;;18.40;75.40;;;;;;4997140;28;21213;-70
2022/03/14 12:19:55;;;;;;;9.13;2.63;;;17.80;80.90;;;;;;4989023;28;20454;-70
2022/03/14 12:22:30;;;;;;;2.90;2.00;;;17.40;83.20;;;;;;4986464;28;20186;-70
2022/03/14 12:24:57;;;;;;;3.67;1.77;;;17.10;82.80;;;;;;4984081;28;20540;-70
2022/03/14 12:27:33;;;;;;;2.90;1.50;;;16.80;82.40;;;;;;4988302;28;20496;-70
2022/03/14 12:29:59;;;;;;;5.37;1.70;;;16.30;84.00;;;;;;4990738;28;20987;-70
2022/03/14 12:32:26;;;;;;;3.87;1.80;;;16.00;89.20;;;;;;4991273;28;20434;-70
2022/03/14 12:35:22;;;;;;;3.00;1.80;;;15.80;90.10;;;;;;4996921;28;21010;-70
2022/03/14 12:37:55;;;;;;;5.30;1.80;;;15.50;90.60;;;;;;4978441;28;20481;-70
2022/03/14 12:40:21;;;;;;;3.50;1.40;;;15.30;92.80;;;;;;4997427;28;21039;-70
2022/03/14 12:42:51;;;;;;;3.10;1.53;;;15.10;92.80;;;;;;4995014;28;20520;-70
2022/03/14 12:45:19;;;;;;;4.07;1.60;;;15.00;94.60;;;;;;4999748;28;20958;-70
2022/03/14 12:48:12;;;;;;;3.00;1.77;;;15.20;94.10;;;;;;4988509;28;20536;-70